createdAt,value
2018-09-14T00:00:55.756Z,10.37
2018-09-14T00:05:59.151Z,13.33
2018-09-14T00:11:02.678Z,13.27
2018-09-14T00:16:06.204Z,16.12
2018-09-14T00:21:09.648Z,14.70
2018-09-14T00:26:13.069Z,13.17
2018-09-14T00:31:17.328Z,14.70
2018-09-14T00:36:20.736Z,12.10
2018-09-14T00:41:24.150Z,14.47
2018-09-14T00:46:27.592Z,15.97
2018-09-14T00:51:30.992Z,18.53
2018-09-14T00:56:34.354Z,15.50
2018-09-14T01:01:37.851Z,18.27
2018-09-14T01:06:41.363Z,19.70
2018-09-14T01:11:44.756Z,19.23
2018-09-14T01:16:48.101Z,25.43
2018-09-14T01:21:51.588Z,15.77
2018-09-14T01:26:54.991Z,17.43
2018-09-14T01:31:59.149Z,18.93
2018-09-14T01:37:02.561Z,18.00
2018-09-14T01:42:06.321Z,17.40
2018-09-14T01:47:09.809Z,17.03
2018-09-14T01:52:13.204Z,20.37
2018-09-14T01:57:16.636Z,23.50
2018-09-14T02:02:20.071Z,21.07
2018-09-14T02:07:23.555Z,24.00
2018-09-14T02:12:26.964Z,22.33
2018-09-14T02:17:30.386Z,21.30
2018-09-14T02:22:33.780Z,25.50
2018-09-14T02:27:37.166Z,27.83
2018-09-14T02:32:40.536Z,23.23
2018-09-14T02:37:43.927Z,24.03
2018-09-14T02:42:48.440Z,25.43
2018-09-14T02:47:51.791Z,30.47
2018-09-14T02:52:55.156Z,26.90
2018-09-14T02:57:58.535Z,27.90
2018-09-14T03:03:01.992Z,26.20
2018-09-14T03:08:05.412Z,26.63
2018-09-14T03:13:08.780Z,21.60
2018-09-14T03:18:12.132Z,26.70
2018-09-14T03:23:15.787Z,22.87
2018-09-14T03:28:19.208Z,20.40
2018-09-14T03:33:22.611Z,22.97
2018-09-14T03:38:26.071Z,20.87
2018-09-14T03:43:30.083Z,26.23
2018-09-14T03:48:33.512Z,26.87
2018-09-14T03:53:37.140Z,33.97
2018-09-14T03:58:40.544Z,32.93
2018-09-14T04:03:43.938Z,35.13
2018-09-14T04:08:47.345Z,31.73
2018-09-14T04:13:50.756Z,34.05
2018-09-14T04:18:58.585Z,34.03
2018-09-14T04:24:02.219Z,32.63
2018-09-14T04:29:05.598Z,30.83
2018-09-14T04:34:09.028Z,31.00
2018-09-14T04:39:12.431Z,29.60
2018-09-14T04:44:15.792Z,26.67
2018-09-14T04:49:19.309Z,26.50
2018-09-14T04:54:22.799Z,22.33
2018-09-14T04:59:26.199Z,23.83
2018-09-14T05:04:29.613Z,23.20
2018-09-14T05:09:33.695Z,22.87
2018-09-14T05:14:37.083Z,21.87
2018-09-14T05:19:40.652Z,23.07
2018-09-14T05:24:44.037Z,21.23
2018-09-14T05:29:48.491Z,19.57
2018-09-14T05:34:51.886Z,19.80
2018-09-14T05:39:55.986Z,19.17
2018-09-14T05:44:59.334Z,20.67
2018-09-14T05:50:02.798Z,20.30
2018-09-14T05:55:06.360Z,19.63
2018-09-14T06:00:09.738Z,24.23
2018-09-14T06:05:13.367Z,25.47
2018-09-14T06:10:16.815Z,22.03
2018-09-14T06:15:20.231Z,20.63
2018-09-14T06:20:23.612Z,19.20
2018-09-14T06:25:27.674Z,17.77
2018-09-14T06:30:31.123Z,20.40
2018-09-14T06:35:34.638Z,17.30
2018-09-14T06:40:38.158Z,18.13
2018-09-14T06:45:41.544Z,18.17
2018-09-14T06:50:44.966Z,20.93
2018-09-14T06:55:48.319Z,20.70
2018-09-14T07:00:51.765Z,19.47
2018-09-14T07:05:55.138Z,15.83
2018-09-14T07:10:58.515Z,16.87
2018-09-14T07:16:02.052Z,14.97
2018-09-14T07:21:05.475Z,17.10
2018-09-14T07:26:09.084Z,12.97
2018-09-14T07:31:12.485Z,12.90
2018-09-14T07:36:16.460Z,14.10
2018-09-14T07:41:19.847Z,14.43
2018-09-14T07:46:23.651Z,15.13
2018-09-14T07:51:27.624Z,14.10
2018-09-14T07:56:31.174Z,15.60
2018-09-14T08:01:34.577Z,17.50
2018-09-14T08:06:38.150Z,16.33
2018-09-14T08:11:41.747Z,16.17
2018-09-14T08:16:45.183Z,17.20
2018-09-14T08:21:49.833Z,19.57
2018-09-14T08:26:53.191Z,19.80
2018-09-14T08:31:56.718Z,17.33
2018-09-14T08:37:00.437Z,20.50
2018-09-14T08:42:03.879Z,18.60
2018-09-14T08:47:07.348Z,20.10
2018-09-14T08:52:10.860Z,17.87
2018-09-14T08:57:14.288Z,18.50
2018-09-14T09:02:17.684Z,19.13
2018-09-14T09:07:21.186Z,15.60
2018-09-14T09:12:25.157Z,18.03
2018-09-14T09:17:28.534Z,14.87
2018-09-14T09:22:31.932Z,17.23
2018-09-14T09:27:35.778Z,18.97
2018-09-14T09:32:39.184Z,17.30
2018-09-14T09:37:42.546Z,19.33
2018-09-14T09:42:45.957Z,20.20
2018-09-14T09:47:49.910Z,17.87
2018-09-14T09:52:53.290Z,14.53
2018-09-14T09:57:56.727Z,16.10
2018-09-14T10:03:05.456Z,13.73
2018-09-14T10:08:08.856Z,13.97
2018-09-14T10:13:12.217Z,16.17
2018-09-14T10:18:15.605Z,14.30
2018-09-14T10:23:19.434Z,18.77
2018-09-14T10:28:22.951Z,19.97
2018-09-14T10:33:26.356Z,14.87
2018-09-14T10:38:30.513Z,17.03
2018-09-14T10:43:34.014Z,14.70
2018-09-14T10:48:37.474Z,17.70
2018-09-14T10:53:40.851Z,13.47
2018-09-14T10:58:44.983Z,15.90
2018-09-14T11:03:48.818Z,15.93
2018-09-14T11:08:52.231Z,15.57
2018-09-14T11:13:55.949Z,12.63
2018-09-14T11:19:00.090Z,14.93
2018-09-14T11:24:04.324Z,17.07
2018-09-14T11:29:07.826Z,14.30
2018-09-14T11:34:11.222Z,13.57
2018-09-14T11:39:14.676Z,12.57
2018-09-14T11:44:18.056Z,17.37
2018-09-14T11:49:21.491Z,13.10
2018-09-14T11:54:25.110Z,14.93
2018-09-14T11:59:28.603Z,12.90
2018-09-14T12:04:31.986Z,11.60
2018-09-14T12:09:35.925Z,12.60
2018-09-14T12:14:39.295Z,14.90
2018-09-14T12:19:42.683Z,15.53
2018-09-14T12:24:46.764Z,14.93
2018-09-14T12:29:50.247Z,15.83
2018-09-14T12:34:53.865Z,17.57
2018-09-14T12:39:57.286Z,12.40
2018-09-14T12:45:01.397Z,11.93
2018-09-14T12:50:05.528Z,12.60
2018-09-14T12:55:08.917Z,12.97
2018-09-14T13:00:12.283Z,14.63
2018-09-14T13:05:15.680Z,12.13
2018-09-14T13:10:19.089Z,12.93
2018-09-14T13:15:22.512Z,12.27
2018-09-14T13:20:25.883Z,12.43
2018-09-14T13:25:29.288Z,11.87
2018-09-14T13:30:32.640Z,10.53
2018-09-14T13:35:36.071Z,10.07
2018-09-14T13:40:39.439Z,9.97
2018-09-14T13:45:42.792Z,8.03
2018-09-14T13:50:46.155Z,10.80
2018-09-14T13:55:49.482Z,9.33
2018-09-14T14:00:53.098Z,10.93
2018-09-14T14:05:56.678Z,8.37
2018-09-14T14:11:00.031Z,8.53
2018-09-14T14:16:03.469Z,8.00
2018-09-14T14:21:07.309Z,9.47
2018-09-14T14:26:10.721Z,9.50
2018-09-14T14:31:14.108Z,12.63
2018-09-14T14:36:17.437Z,10.80
2018-09-14T14:41:20.939Z,10.53
2018-09-14T14:46:24.903Z,8.87
2018-09-14T14:51:28.318Z,9.73
2018-09-14T14:56:31.700Z,8.27
2018-09-14T15:01:35.114Z,7.73
2018-09-14T15:06:38.488Z,9.53
2018-09-14T15:11:41.937Z,8.80
2018-09-14T15:16:45.296Z,9.00
2018-09-14T15:21:48.709Z,9.87
2018-09-14T15:26:53.175Z,9.27
2018-09-14T15:31:57.298Z,7.80
2018-09-14T15:37:00.691Z,7.43
2018-09-14T15:42:04.046Z,8.57
2018-09-14T15:47:07.455Z,8.90
2018-09-14T15:52:11.043Z,8.37
2018-09-14T15:57:14.394Z,8.23
2018-09-14T16:02:17.766Z,7.47
2018-09-14T16:07:21.131Z,6.97
2018-09-14T16:12:24.532Z,6.57
2018-09-14T16:17:28.078Z,6.63
2018-09-14T16:22:31.473Z,30.53
2018-09-14T16:27:34.895Z,7.23
2018-09-14T16:32:38.931Z,7.90
2018-09-14T16:37:42.307Z,6.07
2018-09-14T16:42:45.727Z,7.67
2018-09-14T16:47:49.106Z,6.97
2018-09-14T16:52:52.624Z,5.80
2018-09-14T16:57:56.031Z,5.37
2018-09-14T17:02:59.476Z,6.07
2018-09-14T17:08:02.819Z,9.07
2018-09-14T17:13:06.381Z,11.57
2018-09-14T17:18:10.826Z,8.33
2018-09-14T17:23:14.269Z,8.27
2018-09-14T17:28:17.707Z,10.57
2018-09-14T17:33:21.924Z,8.87
2018-09-14T17:38:25.423Z,10.13
2018-09-14T17:43:28.960Z,8.57
2018-09-14T17:48:34.511Z,8.23
2018-09-14T17:53:37.980Z,9.77
2018-09-14T17:58:41.590Z,9.37
2018-09-14T18:03:44.954Z,10.13
2018-09-14T18:08:48.413Z,10.97
2018-09-14T18:13:52.233Z,13.13
2018-09-14T18:18:55.609Z,9.73
2018-09-14T18:23:58.950Z,11.73
2018-09-14T18:29:02.351Z,11.10
2018-09-14T18:34:05.799Z,12.73
2018-09-14T18:39:11.768Z,10.33
2018-09-14T18:44:15.450Z,11.57
2018-09-14T18:49:19.162Z,11.87
2018-09-14T18:54:22.678Z,9.47
2018-09-14T18:59:26.171Z,12.77
2018-09-14T19:04:30.092Z,11.47
2018-09-14T19:09:33.807Z,12.27
2018-09-14T19:14:37.241Z,10.97
2018-09-14T19:19:41.331Z,10.93
2018-09-14T19:24:45.143Z,9.63
2018-09-14T19:29:48.773Z,9.00
2018-09-14T19:34:52.399Z,9.87
2018-09-14T19:39:56.121Z,10.47
2018-09-14T19:44:59.837Z,9.13
2018-09-14T19:50:03.896Z,9.17
2018-09-14T19:55:07.397Z,11.23
2018-09-14T20:00:10.845Z,12.07
2018-09-14T20:05:14.655Z,9.97
2018-09-14T20:10:19.272Z,11.47
2018-09-14T20:15:22.875Z,8.40
2018-09-14T20:20:26.508Z,9.50
2018-09-14T20:25:29.919Z,11.57
2018-09-14T20:30:33.352Z,12.43
2018-09-14T20:35:36.690Z,13.80
2018-09-14T20:40:40.121Z,13.40
2018-09-14T20:45:43.536Z,13.40
2018-09-14T20:50:46.963Z,16.80
2018-09-14T20:55:50.366Z,13.30
2018-09-14T21:00:54.643Z,14.10
2018-09-14T21:05:58.165Z,14.77
2018-09-14T21:11:02.163Z,14.23
2018-09-14T21:16:06.280Z,14.78
2018-09-14T21:21:09.940Z,14.60
2018-09-14T21:26:13.340Z,14.20
2018-09-14T21:31:17.083Z,13.83
2018-09-14T21:36:21.845Z,15.40
2018-09-14T21:41:25.508Z,14.27
2018-09-14T21:46:28.957Z,13.03
2018-09-14T21:51:33.700Z,13.30
2018-09-14T21:56:37.124Z,13.35
2018-09-14T22:01:40.636Z,13.10
2018-09-14T22:06:44.072Z,13.13
2018-09-14T22:11:47.548Z,14.57
2018-09-14T22:16:51.369Z,12.77
2018-09-14T22:21:54.795Z,13.50
2018-09-14T22:26:58.319Z,12.17
2018-09-14T22:32:01.711Z,12.30
2018-09-14T22:37:05.436Z,15.97
2018-09-14T22:42:08.992Z,14.10
2018-09-14T22:47:12.370Z,13.70
2018-09-14T22:52:15.771Z,14.37
2018-09-14T22:57:19.146Z,12.87
2018-09-14T23:02:22.510Z,13.30
2018-09-14T23:07:25.883Z,13.03
2018-09-14T23:12:29.250Z,13.77
2018-09-14T23:17:32.615Z,13.67
2018-09-14T23:22:36.070Z,13.97
2018-09-14T23:27:39.422Z,13.53
2018-09-14T23:32:42.742Z,13.27
2018-09-14T23:37:46.132Z,14.77
2018-09-14T23:42:49.532Z,12.70
2018-09-14T23:47:52.917Z,14.70
2018-09-14T23:52:56.403Z,14.37
2018-09-14T23:57:59.730Z,14.50
